sensor_id;sensor_type;location;lat;lon;timestamp;P1;durP1;ratioP1;P2;durP2;ratioP2
13455;SDS011;6800;50.940;6.940;2022-09-13T00:00:13;6.65;;;5.10;;
13455;SDS011;6800;50.940;6.940;2022-09-13T00:04:13;5.65;;;5.15;;
13455;SDS011;6800;50.940;6.940;2022-09-13T00:08:14;5.80;;;5.30;;
13455;SDS011;6800;50.940;6.940;2022-09-13T00:12:14;6.20;;;5.70;;
13455;SDS011;6800;50.940;6.940;2022-09-13T00:16:15;6.03;;;5.53;;
13455;SDS011;6800;50.940;6.940;2022-09-13T00:20:17;5.53;;;5.03;;
13455;SDS011;6800;50.940;6.940;2022-09-13T00:24:18;5.82;;;5.22;;
13455;SDS011;6800;50.940;6.940;2022-09-13T00:28:18;5.65;;;5.25;;
13455;SDS011;6800;50.940;6.940;2022-09-13T00:32:18;6.40;;;5.78;;
13455;SDS011;6800;50.940;6.940;2022-09-13T00:36:19;5.07;;;4.68;;
13455;SDS011;6800;50.940;6.940;2022-09-13T00:40:19;5.22;;;4.82;;
13455;SDS011;6800;50.940;6.940;2022-09-13T00:49:02;5.82;;;5.22;;
13455;SDS011;6800;50.940;6.940;2022-09-13T00:53:14;5.80;;;5.20;;
13455;SDS011;6800;50.940;6.940;2022-09-13T00:57:24;5.65;;;5.15;;
13455;SDS011;6800;50.940;6.940;2022-09-13T01:01:27;5.80;;;5.00;;
13455;SDS011;6800;50.940;6.940;2022-09-13T01:05:34;6.32;;;5.15;;
13455;SDS011;6800;50.940;6.940;2022-09-13T01:09:38;5.07;;;4.70;;
13455;SDS011;6800;50.940;6.940;2022-09-13T01:13:41;5.68;;;5.28;;
13455;SDS011;6800;50.940;6.940;2022-09-13T01:17:42;5.70;;;5.30;;
13455;SDS011;6800;50.940;6.940;2022-09-13T01:21:48;5.65;;;5.18;;
13455;SDS011;6800;50.940;6.940;2022-09-13T01:30:32;5.70;;;5.13;;
13455;SDS011;6800;50.940;6.940;2022-09-13T01:39:02;5.70;;;5.30;;
13455;SDS011;6800;50.940;6.940;2022-09-13T01:43:10;6.03;;;5.60;;
13455;SDS011;6800;50.940;6.940;2022-09-13T01:47:56;5.90;;;5.40;;
13455;SDS011;6800;50.940;6.940;2022-09-13T01:56:21;6.55;;;5.90;;
13455;SDS011;6800;50.940;6.940;2022-09-13T02:09:27;5.70;;;5.30;;
13455;SDS011;6800;50.940;6.940;2022-09-13T02:13:34;6.70;;;6.10;;
13455;SDS011;6800;50.940;6.940;2022-09-13T02:17:38;6.10;;;5.60;;
13455;SDS011;6800;50.940;6.940;2022-09-13T02:21:44;6.35;;;5.85;;
13455;SDS011;6800;50.940;6.940;2022-09-13T02:25:49;6.35;;;5.75;;
13455;SDS011;6800;50.940;6.940;2022-09-13T02:29:54;6.32;;;5.93;;
13455;SDS011;6800;50.940;6.940;2022-09-13T02:34:02;6.22;;;5.72;;
13455;SDS011;6800;50.940;6.940;2022-09-13T02:38:08;6.13;;;5.63;;
13455;SDS011;6800;50.940;6.940;2022-09-13T02:59:02;6.55;;;5.95;;
13455;SDS011;6800;50.940;6.940;2022-09-13T03:03:07;5.60;;;5.20;;
13455;SDS011;6800;50.940;6.940;2022-09-13T03:07:13;5.72;;;5.22;;
13455;SDS011;6800;50.940;6.940;2022-09-13T03:15:57;6.10;;;5.65;;
13455;SDS011;6800;50.940;6.940;2022-09-13T03:20:10;5.38;;;4.90;;
13455;SDS011;6800;50.940;6.940;2022-09-13T03:24:19;5.40;;;4.90;;
13455;SDS011;6800;50.940;6.940;2022-09-13T03:28:31;5.38;;;4.90;;
13455;SDS011;6800;50.940;6.940;2022-09-13T03:37:00;5.25;;;4.75;;
13455;SDS011;6800;50.940;6.940;2022-09-13T03:45:14;6.68;;;5.18;;
13455;SDS011;6800;50.940;6.940;2022-09-13T03:49:18;5.50;;;5.00;;
13455;SDS011;6800;50.940;6.940;2022-09-13T03:53:22;5.30;;;4.90;;
13455;SDS011;6800;50.940;6.940;2022-09-13T03:57:26;5.20;;;4.85;;
13455;SDS011;6800;50.940;6.940;2022-09-13T04:01:26;5.95;;;5.38;;
13455;SDS011;6800;50.940;6.940;2022-09-13T04:05:27;5.93;;;5.43;;
13455;SDS011;6800;50.940;6.940;2022-09-13T04:09:27;6.70;;;5.10;;
13455;SDS011;6800;50.940;6.940;2022-09-13T04:13:28;5.47;;;5.03;;
13455;SDS011;6800;50.940;6.940;2022-09-13T04:17:28;5.50;;;5.00;;
13455;SDS011;6800;50.940;6.940;2022-09-13T04:21:28;5.20;;;4.80;;
13455;SDS011;6800;50.940;6.940;2022-09-13T04:25:29;5.47;;;5.07;;
13455;SDS011;6800;50.940;6.940;2022-09-13T04:29:29;5.85;;;5.10;;
13455;SDS011;6800;50.940;6.940;2022-09-13T04:33:31;6.05;;;5.43;;
13455;SDS011;6800;50.940;6.940;2022-09-13T04:37:32;6.30;;;5.80;;
13455;SDS011;6800;50.940;6.940;2022-09-13T04:41:32;6.13;;;5.72;;
13455;SDS011;6800;50.940;6.940;2022-09-13T04:45:33;6.25;;;5.75;;
13455;SDS011;6800;50.940;6.940;2022-09-13T04:49:34;6.25;;;5.75;;
13455;SDS011;6800;50.940;6.940;2022-09-13T04:53:34;5.85;;;5.35;;
13455;SDS011;6800;50.940;6.940;2022-09-13T04:57:34;6.38;;;5.75;;
13455;SDS011;6800;50.940;6.940;2022-09-13T05:01:35;6.32;;;5.75;;
13455;SDS011;6800;50.940;6.940;2022-09-13T05:05:36;6.95;;;5.90;;
13455;SDS011;6800;50.940;6.940;2022-09-13T05:09:36;6.40;;;5.47;;
13455;SDS011;6800;50.940;6.940;2022-09-13T05:13:36;6.45;;;5.97;;
13455;SDS011;6800;50.940;6.940;2022-09-13T05:17:37;6.43;;;5.95;;
13455;SDS011;6800;50.940;6.940;2022-09-13T05:21:37;6.40;;;5.90;;
13455;SDS011;6800;50.940;6.940;2022-09-13T05:25:38;7.03;;;6.32;;
13455;SDS011;6800;50.940;6.940;2022-09-13T05:29:38;7.32;;;6.72;;
13455;SDS011;6800;50.940;6.940;2022-09-13T05:33:38;7.22;;;6.50;;
13455;SDS011;6800;50.940;6.940;2022-09-13T05:37:38;7.70;;;6.35;;
13455;SDS011;6800;50.940;6.940;2022-09-13T05:41:39;7.00;;;6.32;;
13455;SDS011;6800;50.940;6.940;2022-09-13T05:45:40;6.97;;;6.10;;
13455;SDS011;6800;50.940;6.940;2022-09-13T05:49:40;6.80;;;6.07;;
13455;SDS011;6800;50.940;6.940;2022-09-13T05:53:41;9.27;;;8.38;;
13455;SDS011;6800;50.940;6.940;2022-09-13T05:57:42;6.20;;;5.70;;
13455;SDS011;6800;50.940;6.940;2022-09-13T06:01:43;7.03;;;6.32;;
13455;SDS011;6800;50.940;6.940;2022-09-13T06:05:44;10.30;;;7.65;;
13455;SDS011;6800;50.940;6.940;2022-09-13T06:09:44;7.18;;;6.45;;
13455;SDS011;6800;50.940;6.940;2022-09-13T06:13:45;6.82;;;6.32;;
13455;SDS011;6800;50.940;6.940;2022-09-13T06:17:46;5.43;;;4.95;;
13455;SDS011;6800;50.940;6.940;2022-09-13T06:21:47;6.40;;;5.30;;
13455;SDS011;6800;50.940;6.940;2022-09-13T06:25:47;6.22;;;5.63;;
13455;SDS011;6800;50.940;6.940;2022-09-13T06:29:47;6.50;;;6.05;;
13455;SDS011;6800;50.940;6.940;2022-09-13T06:33:48;7.45;;;6.75;;
13455;SDS011;6800;50.940;6.940;2022-09-13T06:37:48;6.90;;;6.30;;
13455;SDS011;6800;50.940;6.940;2022-09-13T06:41:48;6.18;;;5.55;;
13455;SDS011;6800;50.940;6.940;2022-09-13T06:45:49;10.45;;;6.10;;
13455;SDS011;6800;50.940;6.940;2022-09-13T06:49:49;5.88;;;5.47;;
13455;SDS011;6800;50.940;6.940;2022-09-13T06:53:50;6.22;;;5.72;;
13455;SDS011;6800;50.940;6.940;2022-09-13T06:57:51;8.48;;;5.68;;
13455;SDS011;6800;50.940;6.940;2022-09-13T07:01:51;7.00;;;5.22;;
13455;SDS011;6800;50.940;6.940;2022-09-13T07:05:52;5.25;;;4.85;;
13455;SDS011;6800;50.940;6.940;2022-09-13T07:09:53;7.43;;;5.55;;
13455;SDS011;6800;50.940;6.940;2022-09-13T07:13:55;6.40;;;5.80;;
13455;SDS011;6800;50.940;6.940;2022-09-13T07:17:57;5.72;;;5.22;;
13455;SDS011;6800;50.940;6.940;2022-09-13T07:21:58;7.10;;;5.30;;
13455;SDS011;6800;50.940;6.940;2022-09-13T07:25:59;5.45;;;4.95;;
13455;SDS011;6800;50.940;6.940;2022-09-13T07:30:04;5.75;;;5.05;;
13455;SDS011;6800;50.940;6.940;2022-09-13T07:34:06;6.20;;;5.25;;
13455;SDS011;6800;50.940;6.940;2022-09-13T07:38:07;9.80;;;5.53;;
13455;SDS011;6800;50.940;6.940;2022-09-13T07:42:09;6.70;;;6.10;;
13455;SDS011;6800;50.940;6.940;2022-09-13T07:46:10;5.93;;;5.13;;
13455;SDS011;6800;50.940;6.940;2022-09-13T07:50:14;5.78;;;4.93;;
13455;SDS011;6800;50.940;6.940;2022-09-13T07:54:15;5.43;;;4.90;;
13455;SDS011;6800;50.940;6.940;2022-09-13T07:58:17;6.50;;;4.97;;
13455;SDS011;6800;50.940;6.940;2022-09-13T08:06:35;5.30;;;4.80;;
13455;SDS011;6800;50.940;6.940;2022-09-13T08:10:36;5.10;;;4.57;;
13455;SDS011;6800;50.940;6.940;2022-09-13T08:14:37;6.35;;;5.65;;
13455;SDS011;6800;50.940;6.940;2022-09-13T08:18:37;5.10;;;4.53;;
13455;SDS011;6800;50.940;6.940;2022-09-13T08:22:42;6.10;;;5.18;;
13455;SDS011;6800;50.940;6.940;2022-09-13T08:26:43;5.22;;;4.60;;
13455;SDS011;6800;50.940;6.940;2022-09-13T08:30:43;5.53;;;3.80;;
13455;SDS011;6800;50.940;6.940;2022-09-13T08:34:44;5.82;;;4.43;;
13455;SDS011;6800;50.940;6.940;2022-09-13T08:38:53;7.68;;;4.60;;
13455;SDS011;6800;50.940;6.940;2022-09-13T08:43:01;4.47;;;4.07;;
13455;SDS011;6800;50.940;6.940;2022-09-13T08:51:25;6.43;;;4.20;;
13455;SDS011;6800;50.940;6.940;2022-09-13T08:55:45;7.20;;;4.40;;
13455;SDS011;6800;50.940;6.940;2022-09-13T10:02:22;4.15;;;2.03;;
13455;SDS011;6800;50.940;6.940;2022-09-13T10:11:23;3.13;;;1.70;;
13455;SDS011;6800;50.940;6.940;2022-09-13T10:21:00;3.15;;;2.05;;
13455;SDS011;6800;50.940;6.940;2022-09-13T10:34:40;3.53;;;1.67;;
13455;SDS011;6800;50.940;6.940;2022-09-13T10:43:12;4.50;;;2.17;;
13455;SDS011;6800;50.940;6.940;2022-09-13T10:47:23;7.47;;;2.33;;
13455;SDS011;6800;50.940;6.940;2022-09-13T10:55:28;2.58;;;1.70;;
13455;SDS011;6800;50.940;6.940;2022-09-13T11:31:08;3.90;;;2.20;;
13455;SDS011;6800;50.940;6.940;2022-09-13T11:39:42;5.55;;;1.42;;
13455;SDS011;6800;50.940;6.940;2022-09-13T11:43:53;4.35;;;1.20;;
13455;SDS011;6800;50.940;6.940;2022-09-13T11:52:32;2.83;;;1.30;;
13455;SDS011;6800;50.940;6.940;2022-09-13T11:56:51;3.45;;;1.80;;
13455;SDS011;6800;50.940;6.940;2022-09-13T13:33:20;5.93;;;2.00;;
13455;SDS011;6800;50.940;6.940;2022-09-13T13:37:25;4.72;;;2.50;;
13455;SDS011;6800;50.940;6.940;2022-09-13T13:45:42;1.98;;;1.40;;
13455;SDS011;6800;50.940;6.940;2022-09-13T13:50:15;4.18;;;1.52;;
13455;SDS011;6800;50.940;6.940;2022-09-13T13:54:28;5.50;;;1.60;;
13455;SDS011;6800;50.940;6.940;2022-09-13T14:50:24;3.83;;;2.42;;
13455;SDS011;6800;50.940;6.940;2022-09-13T14:58:38;4.43;;;2.08;;
13455;SDS011;6800;50.940;6.940;2022-09-13T15:57:16;2.72;;;2.10;;
13455;SDS011;6800;50.940;6.940;2022-09-13T16:01:28;3.70;;;2.10;;
13455;SDS011;6800;50.940;6.940;2022-09-13T16:05:28;6.28;;;2.20;;
13455;SDS011;6800;50.940;6.940;2022-09-13T16:09:28;3.35;;;2.25;;
13455;SDS011;6800;50.940;6.940;2022-09-13T16:13:29;3.88;;;2.00;;
13455;SDS011;6800;50.940;6.940;2022-09-13T16:17:29;3.97;;;2.30;;
13455;SDS011;6800;50.940;6.940;2022-09-13T16:21:30;4.03;;;2.65;;
13455;SDS011;6800;50.940;6.940;2022-09-13T16:25:30;3.55;;;2.50;;
13455;SDS011;6800;50.940;6.940;2022-09-13T16:29:30;4.95;;;2.45;;
13455;SDS011;6800;50.940;6.940;2022-09-13T16:33:31;3.20;;;2.45;;
13455;SDS011;6800;50.940;6.940;2022-09-13T16:37:31;6.35;;;2.70;;
13455;SDS011;6800;50.940;6.940;2022-09-13T16:41:31;6.28;;;2.13;;
13455;SDS011;6800;50.940;6.940;2022-09-13T16:45:32;5.05;;;3.03;;
13455;SDS011;6800;50.940;6.940;2022-09-13T16:49:33;3.30;;;2.30;;
13455;SDS011;6800;50.940;6.940;2022-09-13T16:53:33;6.63;;;3.00;;
13455;SDS011;6800;50.940;6.940;2022-09-13T16:57:35;4.55;;;2.30;;
13455;SDS011;6800;50.940;6.940;2022-09-13T17:01:36;4.03;;;2.20;;
13455;SDS011;6800;50.940;6.940;2022-09-13T17:05:36;5.28;;;2.00;;
13455;SDS011;6800;50.940;6.940;2022-09-13T17:09:36;5.40;;;2.30;;
13455;SDS011;6800;50.940;6.940;2022-09-13T17:13:39;4.53;;;2.80;;
13455;SDS011;6800;50.940;6.940;2022-09-13T17:17:40;2.97;;;2.67;;
13455;SDS011;6800;50.940;6.940;2022-09-13T17:21:41;3.45;;;2.70;;
13455;SDS011;6800;50.940;6.940;2022-09-13T17:25:42;2.97;;;2.67;;
13455;SDS011;6800;50.940;6.940;2022-09-13T17:29:45;6.72;;;2.53;;
13455;SDS011;6800;50.940;6.940;2022-09-13T17:33:46;3.83;;;2.40;;
13455;SDS011;6800;50.940;6.940;2022-09-13T17:37:46;3.63;;;2.30;;
13455;SDS011;6800;50.940;6.940;2022-09-13T17:41:46;3.20;;;2.50;;
13455;SDS011;6800;50.940;6.940;2022-09-13T17:45:50;4.00;;;2.75;;
13455;SDS011;6800;50.940;6.940;2022-09-13T17:49:50;5.68;;;2.45;;
13455;SDS011;6800;50.940;6.940;2022-09-13T17:53:54;7.38;;;2.47;;
13455;SDS011;6800;50.940;6.940;2022-09-13T17:57:57;4.85;;;2.75;;
13455;SDS011;6800;50.940;6.940;2022-09-13T18:01:57;3.35;;;3.00;;
13455;SDS011;6800;50.940;6.940;2022-09-13T18:06:00;3.00;;;2.70;;
13455;SDS011;6800;50.940;6.940;2022-09-13T18:10:00;3.95;;;3.05;;
13455;SDS011;6800;50.940;6.940;2022-09-13T18:14:01;4.47;;;2.97;;
13455;SDS011;6800;50.940;6.940;2022-09-13T18:18:02;5.18;;;3.13;;
13455;SDS011;6800;50.940;6.940;2022-09-13T18:22:02;6.85;;;3.65;;
13455;SDS011;6800;50.940;6.940;2022-09-13T18:26:04;6.43;;;3.90;;
13455;SDS011;6800;50.940;6.940;2022-09-13T18:30:12;8.23;;;4.50;;
13455;SDS011;6800;50.940;6.940;2022-09-13T18:34:12;4.18;;;3.50;;
13455;SDS011;6800;50.940;6.940;2022-09-13T18:38:13;6.60;;;4.40;;
13455;SDS011;6800;50.940;6.940;2022-09-13T18:42:14;5.00;;;4.32;;
13455;SDS011;6800;50.940;6.940;2022-09-13T18:46:15;6.30;;;4.50;;
13455;SDS011;6800;50.940;6.940;2022-09-13T18:50:17;5.93;;;4.85;;
13455;SDS011;6800;50.940;6.940;2022-09-13T18:54:17;6.85;;;4.97;;
13455;SDS011;6800;50.940;6.940;2022-09-13T18:58:18;7.22;;;5.50;;
13455;SDS011;6800;50.940;6.940;2022-09-13T19:02:18;8.25;;;5.43;;
13455;SDS011;6800;50.940;6.940;2022-09-13T19:06:20;6.88;;;5.57;;
13455;SDS011;6800;50.940;6.940;2022-09-13T19:10:21;8.13;;;7.32;;
13455;SDS011;6800;50.940;6.940;2022-09-13T19:14:26;10.77;;;7.38;;
13455;SDS011;6800;50.940;6.940;2022-09-13T19:18:27;6.97;;;6.28;;
13455;SDS011;6800;50.940;6.940;2022-09-13T19:22:28;6.85;;;6.13;;
13455;SDS011;6800;50.940;6.940;2022-09-13T19:26:29;6.40;;;5.68;;
13455;SDS011;6800;50.940;6.940;2022-09-13T19:30:33;7.75;;;6.97;;
13455;SDS011;6800;50.940;6.940;2022-09-13T19:34:34;7.43;;;6.43;;
13455;SDS011;6800;50.940;6.940;2022-09-13T19:38:34;8.32;;;6.80;;
13455;SDS011;6800;50.940;6.940;2022-09-13T19:42:34;7.97;;;7.07;;
13455;SDS011;6800;50.940;6.940;2022-09-13T19:46:36;9.93;;;7.15;;
13455;SDS011;6800;50.940;6.940;2022-09-13T19:50:37;7.68;;;6.85;;
13455;SDS011;6800;50.940;6.940;2022-09-13T19:54:38;9.15;;;7.60;;
13455;SDS011;6800;50.940;6.940;2022-09-13T19:58:39;9.50;;;8.23;;
13455;SDS011;6800;50.940;6.940;2022-09-13T20:02:40;11.00;;;8.88;;
13455;SDS011;6800;50.940;6.940;2022-09-13T20:06:41;10.95;;;9.25;;
13455;SDS011;6800;50.940;6.940;2022-09-13T20:10:43;12.25;;;9.82;;
13455;SDS011;6800;50.940;6.940;2022-09-13T20:14:44;11.98;;;10.77;;
13455;SDS011;6800;50.940;6.940;2022-09-13T20:18:45;13.63;;;10.32;;
13455;SDS011;6800;50.940;6.940;2022-09-13T20:22:46;9.15;;;8.23;;
13455;SDS011;6800;50.940;6.940;2022-09-13T20:26:46;8.88;;;7.85;;
13455;SDS011;6800;50.940;6.940;2022-09-13T20:30:52;8.57;;;7.25;;
13455;SDS011;6800;50.940;6.940;2022-09-13T20:34:53;9.20;;;7.78;;
13455;SDS011;6800;50.940;6.940;2022-09-13T20:38:54;8.15;;;7.32;;
13455;SDS011;6800;50.940;6.940;2022-09-13T20:42:56;8.73;;;7.82;;
13455;SDS011;6800;50.940;6.940;2022-09-13T20:46:56;9.75;;;7.32;;
13455;SDS011;6800;50.940;6.940;2022-09-13T20:54:58;9.05;;;8.25;;
13455;SDS011;6800;50.940;6.940;2022-09-13T20:58:59;9.88;;;8.18;;
13455;SDS011;6800;50.940;6.940;2022-09-13T21:02:59;9.75;;;8.70;;
13455;SDS011;6800;50.940;6.940;2022-09-13T21:06:59;10.27;;;9.38;;
13455;SDS011;6800;50.940;6.940;2022-09-13T21:11:22;14.27;;;12.93;;
13455;SDS011;6800;50.940;6.940;2022-09-13T21:15:24;16.27;;;11.23;;
13455;SDS011;6800;50.940;6.940;2022-09-13T21:19:24;11.40;;;9.73;;
13455;SDS011;6800;50.940;6.940;2022-09-13T21:23:25;10.88;;;9.20;;
13455;SDS011;6800;50.940;6.940;2022-09-13T21:27:29;8.95;;;8.02;;
13455;SDS011;6800;50.940;6.940;2022-09-13T21:31:30;9.65;;;8.52;;
13455;SDS011;6800;50.940;6.940;2022-09-13T21:35:35;10.43;;;8.80;;
13455;SDS011;6800;50.940;6.940;2022-09-13T21:39:38;9.35;;;8.50;;
13455;SDS011;6800;50.940;6.940;2022-09-13T21:43:39;8.90;;;8.00;;
13455;SDS011;6800;50.940;6.940;2022-09-13T21:47:40;9.43;;;7.50;;
13455;SDS011;6800;50.940;6.940;2022-09-13T21:51:45;7.15;;;6.05;;
13455;SDS011;6800;50.940;6.940;2022-09-13T21:55:47;6.72;;;5.95;;
13455;SDS011;6800;50.940;6.940;2022-09-13T22:03:58;10.95;;;6.90;;
13455;SDS011;6800;50.940;6.940;2022-09-13T22:07:58;9.77;;;7.43;;
13455;SDS011;6800;50.940;6.940;2022-09-13T22:11:59;8.93;;;6.70;;
13455;SDS011;6800;50.940;6.940;2022-09-13T22:16:06;12.38;;;8.55;;
13455;SDS011;6800;50.940;6.940;2022-09-13T22:20:08;11.18;;;8.57;;
13455;SDS011;6800;50.940;6.940;2022-09-13T22:29:10;15.00;;;10.80;;
13455;SDS011;6800;50.940;6.940;2022-09-13T22:33:11;10.70;;;7.40;;
13455;SDS011;6800;50.940;6.940;2022-09-13T22:37:11;8.23;;;7.22;;
13455;SDS011;6800;50.940;6.940;2022-09-13T22:41:16;9.18;;;7.70;;
13455;SDS011;6800;50.940;6.940;2022-09-13T22:45:18;12.57;;;7.97;;
13455;SDS011;6800;50.940;6.940;2022-09-13T22:49:18;9.35;;;7.30;;
13455;SDS011;6800;50.940;6.940;2022-09-13T22:53:19;9.50;;;7.40;;
13455;SDS011;6800;50.940;6.940;2022-09-13T22:57:20;9.05;;;7.45;;
13455;SDS011;6800;50.940;6.940;2022-09-13T23:01:21;8.80;;;6.97;;
13455;SDS011;6800;50.940;6.940;2022-09-13T23:05:23;9.02;;;6.88;;
13455;SDS011;6800;50.940;6.940;2022-09-13T23:09:23;9.60;;;7.53;;
13455;SDS011;6800;50.940;6.940;2022-09-13T23:13:23;8.68;;;7.55;;
13455;SDS011;6800;50.940;6.940;2022-09-13T23:17:23;12.73;;;8.17;;
13455;SDS011;6800;50.940;6.940;2022-09-13T23:21:25;11.88;;;8.57;;
13455;SDS011;6800;50.940;6.940;2022-09-13T23:25:27;12.50;;;9.27;;
13455;SDS011;6800;50.940;6.940;2022-09-13T23:29:27;10.13;;;8.68;;
13455;SDS011;6800;50.940;6.940;2022-09-13T23:33:28;10.80;;;8.73;;
13455;SDS011;6800;50.940;6.940;2022-09-13T23:37:28;11.13;;;8.73;;
13455;SDS011;6800;50.940;6.940;2022-09-13T23:41:30;12.88;;;10.30;;
13455;SDS011;6800;50.940;6.940;2022-09-13T23:45:31;12.77;;;10.32;;
13455;SDS011;6800;50.940;6.940;2022-09-13T23:49:32;16.52;;;12.77;;
13455;SDS011;6800;50.940;6.940;2022-09-13T23:53:33;20.65;;;16.30;;
13455;SDS011;6800;50.940;6.940;2022-09-13T23:57:34;24.80;;;16.73;;
